sensor_id;sensor_type;location;lat;lon;timestamp;P1;durP1;ratioP1;P2;durP2;ratioP2
26014;SDS011;13793;55.388;37.844;2022-10-18T00:02:13;26.07;;;18.10;;
26014;SDS011;13793;55.388;37.844;2022-10-18T00:04:44;29.27;;;18.47;;
26014;SDS011;13793;55.388;37.844;2022-10-18T00:07:15;28.50;;;17.93;;
26014;SDS011;13793;55.388;37.844;2022-10-18T00:09:45;26.87;;;18.07;;
26014;SDS011;13793;55.388;37.844;2022-10-18T00:12:16;32.20;;;18.17;;
26014;SDS011;13793;55.388;37.844;2022-10-18T00:14:48;27.93;;;17.20;;
26014;SDS011;13793;55.388;37.844;2022-10-18T00:17:19;24.93;;;17.67;;
26014;SDS011;13793;55.388;37.844;2022-10-18T00:19:49;25.03;;;17.50;;
26014;SDS011;13793;55.388;37.844;2022-10-18T00:22:20;26.83;;;17.57;;
26014;SDS011;13793;55.388;37.844;2022-10-18T00:24:51;28.63;;;17.83;;
26014;SDS011;13793;55.388;37.844;2022-10-18T00:27:21;26.07;;;17.10;;
26014;SDS011;13793;55.388;37.844;2022-10-18T00:29:52;25.63;;;17.50;;
26014;SDS011;13793;55.388;37.844;2022-10-18T00:32:23;29.23;;;19.17;;
26014;SDS011;13793;55.388;37.844;2022-10-18T00:34:54;28.00;;;18.87;;
26014;SDS011;13793;55.388;37.844;2022-10-18T00:37:24;27.27;;;18.63;;
26014;SDS011;13793;55.388;37.844;2022-10-18T00:39:55;25.93;;;18.07;;
26014;SDS011;13793;55.388;37.844;2022-10-18T00:42:30;28.90;;;18.03;;
26014;SDS011;13793;55.388;37.844;2022-10-18T00:45:04;31.87;;;20.70;;
26014;SDS011;13793;55.388;37.844;2022-10-18T00:47:37;29.07;;;19.07;;
26014;SDS011;13793;55.388;37.844;2022-10-18T00:50:08;32.87;;;20.07;;
26014;SDS011;13793;55.388;37.844;2022-10-18T00:52:41;29.73;;;19.60;;
26014;SDS011;13793;55.388;37.844;2022-10-18T00:55:15;28.23;;;19.00;;
26014;SDS011;13793;55.388;37.844;2022-10-18T00:57:46;32.30;;;19.97;;
26014;SDS011;13793;55.388;37.844;2022-10-18T01:00:18;30.33;;;20.60;;
26014;SDS011;13793;55.388;37.844;2022-10-18T01:02:50;29.43;;;19.67;;
26014;SDS011;13793;55.388;37.844;2022-10-18T01:05:21;33.97;;;20.43;;
26014;SDS011;13793;55.388;37.844;2022-10-18T01:10:48;33.10;;;20.47;;
26014;SDS011;13793;55.388;37.844;2022-10-18T01:13:39;32.50;;;20.80;;
26014;SDS011;13793;55.388;37.844;2022-10-18T01:16:25;30.73;;;20.17;;
26014;SDS011;13793;55.388;37.844;2022-10-18T01:27:11;30.03;;;18.57;;
26014;SDS011;13793;55.388;37.844;2022-10-18T01:32:38;34.83;;;20.37;;
26014;SDS011;13793;55.388;37.844;2022-10-18T01:35:13;32.33;;;19.97;;
26014;SDS011;13793;55.388;37.844;2022-10-18T01:37:46;31.60;;;19.43;;
26014;SDS011;13793;55.388;37.844;2022-10-18T01:40:18;34.10;;;20.80;;
26014;SDS011;13793;55.388;37.844;2022-10-18T01:42:49;30.83;;;19.70;;
26014;SDS011;13793;55.388;37.844;2022-10-18T01:45:20;29.70;;;20.30;;
26014;SDS011;13793;55.388;37.844;2022-10-18T01:47:52;29.40;;;19.07;;
26014;SDS011;13793;55.388;37.844;2022-10-18T01:50:30;31.63;;;19.50;;
26014;SDS011;13793;55.388;37.844;2022-10-18T01:53:02;30.13;;;19.53;;
26014;SDS011;13793;55.388;37.844;2022-10-18T01:55:42;32.43;;;19.73;;
26014;SDS011;13793;55.388;37.844;2022-10-18T01:58:22;33.00;;;20.00;;
26014;SDS011;13793;55.388;37.844;2022-10-18T02:01:17;34.63;;;20.43;;
26014;SDS011;13793;55.388;37.844;2022-10-18T02:03:43;31.63;;;20.93;;
26014;SDS011;13793;55.388;37.844;2022-10-18T02:06:24;33.23;;;20.90;;
26014;SDS011;13793;55.388;37.844;2022-10-18T02:08:56;32.47;;;20.47;;
26014;SDS011;13793;55.388;37.844;2022-10-18T02:11:33;31.63;;;20.07;;
26014;SDS011;13793;55.388;37.844;2022-10-18T02:14:09;34.60;;;21.07;;
26014;SDS011;13793;55.388;37.844;2022-10-18T02:19:29;34.43;;;21.23;;
26014;SDS011;13793;55.388;37.844;2022-10-18T02:22:04;33.43;;;20.37;;
26014;SDS011;13793;55.388;37.844;2022-10-18T02:24:41;35.27;;;21.03;;
26014;SDS011;13793;55.388;37.844;2022-10-18T02:27:12;35.63;;;21.60;;
26014;SDS011;13793;55.388;37.844;2022-10-18T02:29:44;34.23;;;20.80;;
26014;SDS011;13793;55.388;37.844;2022-10-18T02:34:58;38.43;;;22.87;;
26014;SDS011;13793;55.388;37.844;2022-10-18T02:37:35;30.77;;;21.00;;
26014;SDS011;13793;55.388;37.844;2022-10-18T02:40:06;35.17;;;22.17;;
26014;SDS011;13793;55.388;37.844;2022-10-18T02:42:39;39.50;;;23.33;;
26014;SDS011;13793;55.388;37.844;2022-10-18T02:45:11;34.23;;;22.20;;
26014;SDS011;13793;55.388;37.844;2022-10-18T02:47:42;34.47;;;23.00;;
26014;SDS011;13793;55.388;37.844;2022-10-18T02:50:13;34.80;;;22.50;;
26014;SDS011;13793;55.388;37.844;2022-10-18T02:52:44;38.90;;;22.33;;
26014;SDS011;13793;55.388;37.844;2022-10-18T02:55:15;35.30;;;22.27;;
26014;SDS011;13793;55.388;37.844;2022-10-18T02:57:47;40.30;;;23.70;;
26014;SDS011;13793;55.388;37.844;2022-10-18T03:00:17;39.00;;;21.60;;
26014;SDS011;13793;55.388;37.844;2022-10-18T03:02:49;37.27;;;22.40;;
26014;SDS011;13793;55.388;37.844;2022-10-18T03:05:21;37.27;;;22.30;;
26014;SDS011;13793;55.388;37.844;2022-10-18T03:07:51;38.20;;;21.90;;
26014;SDS011;13793;55.388;37.844;2022-10-18T03:10:23;36.40;;;22.10;;
26014;SDS011;13793;55.388;37.844;2022-10-18T03:12:54;35.90;;;21.87;;
26014;SDS011;13793;55.388;37.844;2022-10-18T03:15:25;39.00;;;21.93;;
26014;SDS011;13793;55.388;37.844;2022-10-18T03:17:55;32.20;;;20.97;;
26014;SDS011;13793;55.388;37.844;2022-10-18T03:20:25;34.37;;;21.30;;
26014;SDS011;13793;55.388;37.844;2022-10-18T03:22:56;30.50;;;20.50;;
26014;SDS011;13793;55.388;37.844;2022-10-18T03:25:27;35.03;;;20.63;;
26014;SDS011;13793;55.388;37.844;2022-10-18T03:27:57;32.13;;;19.63;;
26014;SDS011;13793;55.388;37.844;2022-10-18T03:30:28;38.77;;;21.30;;
26014;SDS011;13793;55.388;37.844;2022-10-18T03:32:58;35.07;;;21.40;;
26014;SDS011;13793;55.388;37.844;2022-10-18T03:35:29;32.23;;;20.20;;
26014;SDS011;13793;55.388;37.844;2022-10-18T03:38:00;37.27;;;20.60;;
26014;SDS011;13793;55.388;37.844;2022-10-18T03:40:30;34.60;;;20.03;;
26014;SDS011;13793;55.388;37.844;2022-10-18T03:43:01;33.77;;;20.10;;
26014;SDS011;13793;55.388;37.844;2022-10-18T03:45:31;33.80;;;20.90;;
26014;SDS011;13793;55.388;37.844;2022-10-18T03:48:02;31.70;;;19.90;;
26014;SDS011;13793;55.388;37.844;2022-10-18T03:50:32;28.77;;;19.30;;
26014;SDS011;13793;55.388;37.844;2022-10-18T03:53:03;34.73;;;19.97;;
26014;SDS011;13793;55.388;37.844;2022-10-18T03:55:35;33.03;;;20.03;;
26014;SDS011;13793;55.388;37.844;2022-10-18T03:58:06;30.77;;;19.30;;
26014;SDS011;13793;55.388;37.844;2022-10-18T04:00:37;36.70;;;20.33;;
26014;SDS011;13793;55.388;37.844;2022-10-18T04:03:07;29.13;;;19.23;;
26014;SDS011;13793;55.388;37.844;2022-10-18T04:05:38;31.13;;;19.10;;
26014;SDS011;13793;55.388;37.844;2022-10-18T04:08:09;31.53;;;18.70;;
26014;SDS011;13793;55.388;37.844;2022-10-18T04:10:39;30.80;;;19.27;;
26014;SDS011;13793;55.388;37.844;2022-10-18T04:13:10;32.97;;;19.33;;
26014;SDS011;13793;55.388;37.844;2022-10-18T04:15:41;32.83;;;18.87;;
26014;SDS011;13793;55.388;37.844;2022-10-18T04:18:12;31.03;;;18.50;;
26014;SDS011;13793;55.388;37.844;2022-10-18T04:20:43;29.00;;;18.60;;
26014;SDS011;13793;55.388;37.844;2022-10-18T04:23:13;29.80;;;19.13;;
26014;SDS011;13793;55.388;37.844;2022-10-18T04:25:44;32.90;;;18.57;;
26014;SDS011;13793;55.388;37.844;2022-10-18T04:28:15;36.23;;;20.77;;
26014;SDS011;13793;55.388;37.844;2022-10-18T04:30:52;34.67;;;19.70;;
26014;SDS011;13793;55.388;37.844;2022-10-18T04:33:23;32.53;;;18.35;;
26014;SDS011;13793;55.388;37.844;2022-10-18T04:35:53;33.13;;;19.47;;
26014;SDS011;13793;55.388;37.844;2022-10-18T04:38:24;34.67;;;19.03;;
26014;SDS011;13793;55.388;37.844;2022-10-18T04:40:55;31.37;;;19.00;;
26014;SDS011;13793;55.388;37.844;2022-10-18T04:43:26;31.93;;;19.60;;
26014;SDS011;13793;55.388;37.844;2022-10-18T04:45:56;35.67;;;19.80;;
26014;SDS011;13793;55.388;37.844;2022-10-18T04:48:28;35.57;;;19.93;;
26014;SDS011;13793;55.388;37.844;2022-10-18T04:50:58;33.00;;;19.57;;
26014;SDS011;13793;55.388;37.844;2022-10-18T04:53:29;34.13;;;19.63;;
26014;SDS011;13793;55.388;37.844;2022-10-18T04:56:03;34.80;;;19.43;;
26014;SDS011;13793;55.388;37.844;2022-10-18T04:58:34;32.77;;;19.83;;
26014;SDS011;13793;55.388;37.844;2022-10-18T05:01:05;30.63;;;19.13;;
26014;SDS011;13793;55.388;37.844;2022-10-18T05:03:36;33.53;;;19.50;;
26014;SDS011;13793;55.388;37.844;2022-10-18T05:06:06;29.73;;;18.27;;
26014;SDS011;13793;55.388;37.844;2022-10-18T05:08:37;32.77;;;19.23;;
26014;SDS011;13793;55.388;37.844;2022-10-18T05:11:08;33.03;;;19.27;;
26014;SDS011;13793;55.388;37.844;2022-10-18T05:13:38;34.63;;;20.13;;
26014;SDS011;13793;55.388;37.844;2022-10-18T05:16:09;34.43;;;19.07;;
26014;SDS011;13793;55.388;37.844;2022-10-18T05:18:40;35.43;;;19.17;;
26014;SDS011;13793;55.388;37.844;2022-10-18T05:21:10;35.90;;;19.90;;
26014;SDS011;13793;55.388;37.844;2022-10-18T05:23:41;32.40;;;18.53;;
26014;SDS011;13793;55.388;37.844;2022-10-18T05:26:15;33.57;;;19.20;;
26014;SDS011;13793;55.388;37.844;2022-10-18T05:28:46;34.90;;;19.00;;
26014;SDS011;13793;55.388;37.844;2022-10-18T05:31:18;31.27;;;17.43;;
26014;SDS011;13793;55.388;37.844;2022-10-18T05:33:49;27.27;;;17.07;;
26014;SDS011;13793;55.388;37.844;2022-10-18T05:36:19;29.83;;;18.03;;
26014;SDS011;13793;55.388;37.844;2022-10-18T05:38:50;29.27;;;17.77;;
26014;SDS011;13793;55.388;37.844;2022-10-18T05:41:21;34.17;;;20.00;;
26014;SDS011;13793;55.388;37.844;2022-10-18T05:43:52;27.53;;;17.83;;
26014;SDS011;13793;55.388;37.844;2022-10-18T05:46:23;30.87;;;18.03;;
26014;SDS011;13793;55.388;37.844;2022-10-18T05:48:53;27.73;;;17.80;;
26014;SDS011;13793;55.388;37.844;2022-10-18T05:51:24;31.53;;;18.60;;
26014;SDS011;13793;55.388;37.844;2022-10-18T05:53:55;31.93;;;18.97;;
26014;SDS011;13793;55.388;37.844;2022-10-18T05:56:26;37.63;;;20.33;;
26014;SDS011;13793;55.388;37.844;2022-10-18T05:58:56;26.87;;;17.77;;
26014;SDS011;13793;55.388;37.844;2022-10-18T06:01:27;25.57;;;17.80;;
26014;SDS011;13793;55.388;37.844;2022-10-18T06:03:58;30.63;;;18.10;;
26014;SDS011;13793;55.388;37.844;2022-10-18T06:06:29;32.50;;;18.10;;
26014;SDS011;13793;55.388;37.844;2022-10-18T06:09:00;29.53;;;17.63;;
26014;SDS011;13793;55.388;37.844;2022-10-18T06:11:32;27.70;;;17.07;;
26014;SDS011;13793;55.388;37.844;2022-10-18T06:14:03;31.17;;;17.13;;
26014;SDS011;13793;55.388;37.844;2022-10-18T06:16:35;27.97;;;17.57;;
26014;SDS011;13793;55.388;37.844;2022-10-18T06:19:06;33.27;;;17.97;;
26014;SDS011;13793;55.388;37.844;2022-10-18T06:21:37;34.53;;;18.83;;
26014;SDS011;13793;55.388;37.844;2022-10-18T06:24:07;32.30;;;18.57;;
26014;SDS011;13793;55.388;37.844;2022-10-18T06:26:38;26.67;;;17.43;;
26014;SDS011;13793;55.388;37.844;2022-10-18T06:29:08;29.37;;;17.80;;
26014;SDS011;13793;55.388;37.844;2022-10-18T06:31:39;28.97;;;18.33;;
26014;SDS011;13793;55.388;37.844;2022-10-18T06:34:10;24.53;;;16.60;;
26014;SDS011;13793;55.388;37.844;2022-10-18T06:36:41;30.67;;;16.93;;
26014;SDS011;13793;55.388;37.844;2022-10-18T06:39:11;40.57;;;23.00;;
26014;SDS011;13793;55.388;37.844;2022-10-18T06:41:42;25.70;;;17.67;;
26014;SDS011;13793;55.388;37.844;2022-10-18T06:44:20;32.53;;;18.43;;
26014;SDS011;13793;55.388;37.844;2022-10-18T06:47:00;33.13;;;20.17;;
26014;SDS011;13793;55.388;37.844;2022-10-18T06:49:30;33.77;;;19.13;;
26014;SDS011;13793;55.388;37.844;2022-10-18T06:52:01;28.03;;;17.50;;
26014;SDS011;13793;55.388;37.844;2022-10-18T06:54:32;27.87;;;17.37;;
26014;SDS011;13793;55.388;37.844;2022-10-18T06:57:03;26.63;;;16.50;;
26014;SDS011;13793;55.388;37.844;2022-10-18T06:59:34;24.17;;;16.23;;
26014;SDS011;13793;55.388;37.844;2022-10-18T07:02:05;31.90;;;17.33;;
26014;SDS011;13793;55.388;37.844;2022-10-18T07:04:35;28.87;;;17.10;;
26014;SDS011;13793;55.388;37.844;2022-10-18T07:07:06;26.33;;;17.10;;
26014;SDS011;13793;55.388;37.844;2022-10-18T07:09:37;28.67;;;18.37;;
26014;SDS011;13793;55.388;37.844;2022-10-18T07:12:10;27.37;;;17.57;;
26014;SDS011;13793;55.388;37.844;2022-10-18T07:14:43;31.47;;;18.73;;
26014;SDS011;13793;55.388;37.844;2022-10-18T07:17:14;27.53;;;18.17;;
26014;SDS011;13793;55.388;37.844;2022-10-18T07:19:45;28.07;;;17.20;;
26014;SDS011;13793;55.388;37.844;2022-10-18T07:22:15;28.57;;;16.83;;
26014;SDS011;13793;55.388;37.844;2022-10-18T07:24:46;28.00;;;17.50;;
26014;SDS011;13793;55.388;37.844;2022-10-18T07:27:16;33.17;;;17.77;;
26014;SDS011;13793;55.388;37.844;2022-10-18T07:29:47;25.17;;;17.57;;
26014;SDS011;13793;55.388;37.844;2022-10-18T07:32:17;31.63;;;17.60;;
26014;SDS011;13793;55.388;37.844;2022-10-18T07:34:48;37.10;;;19.30;;
26014;SDS011;13793;55.388;37.844;2022-10-18T07:37:18;29.93;;;19.17;;
26014;SDS011;13793;55.388;37.844;2022-10-18T07:39:49;29.97;;;18.50;;
26014;SDS011;13793;55.388;37.844;2022-10-18T07:42:19;38.17;;;20.67;;
26014;SDS011;13793;55.388;37.844;2022-10-18T07:44:50;29.53;;;19.57;;
26014;SDS011;13793;55.388;37.844;2022-10-18T07:47:21;32.93;;;19.73;;
26014;SDS011;13793;55.388;37.844;2022-10-18T07:49:52;34.57;;;20.17;;
26014;SDS011;13793;55.388;37.844;2022-10-18T07:52:23;33.63;;;19.57;;
26014;SDS011;13793;55.388;37.844;2022-10-18T07:54:53;32.87;;;21.03;;
26014;SDS011;13793;55.388;37.844;2022-10-18T07:57:24;33.97;;;21.70;;
26014;SDS011;13793;55.388;37.844;2022-10-18T07:59:55;33.97;;;19.53;;
26014;SDS011;13793;55.388;37.844;2022-10-18T08:02:26;32.90;;;20.13;;
26014;SDS011;13793;55.388;37.844;2022-10-18T08:04:57;30.77;;;20.57;;
26014;SDS011;13793;55.388;37.844;2022-10-18T08:07:29;33.17;;;20.07;;
26014;SDS011;13793;55.388;37.844;2022-10-18T08:10:01;27.83;;;18.60;;
26014;SDS011;13793;55.388;37.844;2022-10-18T08:12:31;30.53;;;19.60;;
26014;SDS011;13793;55.388;37.844;2022-10-18T08:15:02;27.77;;;18.17;;
26014;SDS011;13793;55.388;37.844;2022-10-18T08:17:33;29.20;;;17.90;;
26014;SDS011;13793;55.388;37.844;2022-10-18T08:20:04;30.80;;;18.27;;
26014;SDS011;13793;55.388;37.844;2022-10-18T08:22:35;31.13;;;18.93;;
26014;SDS011;13793;55.388;37.844;2022-10-18T08:25:06;31.17;;;18.63;;
26014;SDS011;13793;55.388;37.844;2022-10-18T08:27:37;33.63;;;18.57;;
26014;SDS011;13793;55.388;37.844;2022-10-18T08:30:08;30.33;;;19.63;;
26014;SDS011;13793;55.388;37.844;2022-10-18T08:32:39;33.80;;;19.37;;
26014;SDS011;13793;55.388;37.844;2022-10-18T08:35:10;34.93;;;19.90;;
26014;SDS011;13793;55.388;37.844;2022-10-18T08:37:40;32.50;;;19.27;;
26014;SDS011;13793;55.388;37.844;2022-10-18T08:40:13;34.30;;;20.63;;
26014;SDS011;13793;55.388;37.844;2022-10-18T08:45:25;32.20;;;20.43;;
26014;SDS011;13793;55.388;37.844;2022-10-18T08:47:57;28.93;;;17.73;;
26014;SDS011;13793;55.388;37.844;2022-10-18T08:50:31;27.27;;;18.50;;
26014;SDS011;13793;55.388;37.844;2022-10-18T08:53:23;31.67;;;19.37;;
26014;SDS011;13793;55.388;37.844;2022-10-18T08:56:09;28.60;;;19.43;;
26014;SDS011;13793;55.388;37.844;2022-10-18T08:58:42;29.90;;;19.37;;
26014;SDS011;13793;55.388;37.844;2022-10-18T09:09:36;27.00;;;19.37;;
26014;SDS011;13793;55.388;37.844;2022-10-18T09:12:26;29.93;;;19.70;;
26014;SDS011;13793;55.388;37.844;2022-10-18T09:15:11;30.20;;;19.23;;
26014;SDS011;13793;55.388;37.844;2022-10-18T09:20:44;28.57;;;18.77;;
26014;SDS011;13793;55.388;37.844;2022-10-18T09:26:19;24.23;;;17.17;;
26014;SDS011;13793;55.388;37.844;2022-10-18T09:29:00;23.70;;;16.63;;
26014;SDS011;13793;55.388;37.844;2022-10-18T09:31:53;21.77;;;15.37;;
26014;SDS011;13793;55.388;37.844;2022-10-18T09:34:50;17.83;;;13.40;;
26014;SDS011;13793;55.388;37.844;2022-10-18T09:37:26;17.93;;;12.80;;
26014;SDS011;13793;55.388;37.844;2022-10-18T09:40:10;15.90;;;12.67;;
26014;SDS011;13793;55.388;37.844;2022-10-18T09:42:53;17.07;;;12.73;;
26014;SDS011;13793;55.388;37.844;2022-10-18T09:45:25;14.20;;;11.70;;
26014;SDS011;13793;55.388;37.844;2022-10-18T09:48:20;16.13;;;11.90;;
26014;SDS011;13793;55.388;37.844;2022-10-18T09:59:46;19.97;;;14.13;;
26014;SDS011;13793;55.388;37.844;2022-10-18T10:02:22;18.20;;;13.77;;
26014;SDS011;13793;55.388;37.844;2022-10-18T10:04:50;19.33;;;14.47;;
26014;SDS011;13793;55.388;37.844;2022-10-18T10:07:25;17.23;;;14.83;;
26014;SDS011;13793;55.388;37.844;2022-10-18T10:10:07;19.80;;;15.10;;
26014;SDS011;13793;55.388;37.844;2022-10-18T10:12:42;26.43;;;17.70;;
26014;SDS011;13793;55.388;37.844;2022-10-18T10:15:18;24.30;;;17.97;;
26014;SDS011;13793;55.388;37.844;2022-10-18T10:17:54;26.60;;;20.40;;
26014;SDS011;13793;55.388;37.844;2022-10-18T10:20:41;27.47;;;20.70;;
26014;SDS011;13793;55.388;37.844;2022-10-18T10:23:25;31.47;;;21.07;;
26014;SDS011;13793;55.388;37.844;2022-10-18T10:26:04;30.03;;;22.70;;
26014;SDS011;13793;55.388;37.844;2022-10-18T10:28:53;33.17;;;23.40;;
26014;SDS011;13793;55.388;37.844;2022-10-18T10:34:00;34.80;;;25.97;;
26014;SDS011;13793;55.388;37.844;2022-10-18T10:36:36;38.07;;;27.13;;
26014;SDS011;13793;55.388;37.844;2022-10-18T10:39:21;35.10;;;25.63;;
26014;SDS011;13793;55.388;37.844;2022-10-18T10:41:53;40.83;;;27.80;;
26014;SDS011;13793;55.388;37.844;2022-10-18T10:44:35;44.93;;;30.50;;
26014;SDS011;13793;55.388;37.844;2022-10-18T10:47:01;44.83;;;30.47;;
26014;SDS011;13793;55.388;37.844;2022-10-18T10:49:41;40.73;;;29.20;;
26014;SDS011;13793;55.388;37.844;2022-10-18T10:52:20;42.40;;;29.13;;
26014;SDS011;13793;55.388;37.844;2022-10-18T10:54:52;43.10;;;31.13;;
26014;SDS011;13793;55.388;37.844;2022-10-18T10:57:25;47.03;;;32.17;;
26014;SDS011;13793;55.388;37.844;2022-10-18T10:59:56;48.23;;;33.53;;
26014;SDS011;13793;55.388;37.844;2022-10-18T11:02:30;55.03;;;35.47;;
26014;SDS011;13793;55.388;37.844;2022-10-18T11:08:03;50.23;;;34.63;;
26014;SDS011;13793;55.388;37.844;2022-10-18T11:10:30;56.60;;;36.83;;
26014;SDS011;13793;55.388;37.844;2022-10-18T11:13:14;56.73;;;36.33;;
26014;SDS011;13793;55.388;37.844;2022-10-18T11:15:46;56.98;;;38.35;;
26014;SDS011;13793;55.388;37.844;2022-10-18T11:18:38;59.33;;;39.10;;
26014;SDS011;13793;55.388;37.844;2022-10-18T11:21:07;60.00;;;39.42;;
26014;SDS011;13793;55.388;37.844;2022-10-18T11:23:53;65.37;;;41.30;;
26014;SDS011;13793;55.388;37.844;2022-10-18T11:29:31;64.20;;;41.35;;
26014;SDS011;13793;55.388;37.844;2022-10-18T11:35:03;57.98;;;38.88;;
26014;SDS011;13793;55.388;37.844;2022-10-18T11:43:33;59.03;;;39.65;;
26014;SDS011;13793;55.388;37.844;2022-10-18T11:55:09;50.03;;;37.48;;
26014;SDS011;13793;55.388;37.844;2022-10-18T11:58:00;57.65;;;37.83;;
26014;SDS011;13793;55.388;37.844;2022-10-18T12:00:42;52.33;;;37.15;;
26014;SDS011;13793;55.388;37.844;2022-10-18T12:06:15;55.73;;;37.95;;
26014;SDS011;13793;55.388;37.844;2022-10-18T12:08:54;54.08;;;37.98;;
26014;SDS011;13793;55.388;37.844;2022-10-18T12:11:36;53.80;;;36.48;;
26014;SDS011;13793;55.388;37.844;2022-10-18T12:16:54;50.83;;;35.95;;
26014;SDS011;13793;55.388;37.844;2022-10-18T12:19:29;49.80;;;35.90;;
26014;SDS011;13793;55.388;37.844;2022-10-18T12:22:06;48.28;;;34.98;;
26014;SDS011;13793;55.388;37.844;2022-10-18T12:24:47;46.08;;;33.02;;
26014;SDS011;13793;55.388;37.844;2022-10-18T12:27:18;45.45;;;33.25;;
26014;SDS011;13793;55.388;37.844;2022-10-18T12:32:43;45.15;;;33.60;;
26014;SDS011;13793;55.388;37.844;2022-10-18T12:35:14;44.93;;;32.45;;
26014;SDS011;13793;55.388;37.844;2022-10-18T12:40:48;43.10;;;29.87;;
26014;SDS011;13793;55.388;37.844;2022-10-18T12:43:29;41.35;;;30.97;;
26014;SDS011;13793;55.388;37.844;2022-10-18T12:45:58;41.60;;;30.37;;
26014;SDS011;13793;55.388;37.844;2022-10-18T12:48:33;41.60;;;30.12;;
26014;SDS011;13793;55.388;37.844;2022-10-18T12:51:13;39.48;;;29.77;;
26014;SDS011;13793;55.388;37.844;2022-10-18T12:53:53;38.60;;;29.27;;
26014;SDS011;13793;55.388;37.844;2022-10-18T13:09:39;36.65;;;27.62;;
26014;SDS011;13793;55.388;37.844;2022-10-18T13:20:26;36.90;;;26.87;;
26014;SDS011;13793;55.388;37.844;2022-10-18T13:26:03;30.68;;;24.07;;
26014;SDS011;13793;55.388;37.844;2022-10-18T13:28:58;33.58;;;24.65;;
26014;SDS011;13793;55.388;37.844;2022-10-18T13:31:46;31.77;;;24.72;;
26014;SDS011;13793;55.388;37.844;2022-10-18T13:34:24;31.05;;;24.45;;
26014;SDS011;13793;55.388;37.844;2022-10-18T13:37:01;28.57;;;24.00;;
26014;SDS011;13793;55.388;37.844;2022-10-18T13:39:39;29.70;;;23.70;;
26014;SDS011;13793;55.388;37.844;2022-10-18T13:44:50;32.00;;;23.12;;
26014;SDS011;13793;55.388;37.844;2022-10-18T13:47:36;32.20;;;24.92;;
26014;SDS011;13793;55.388;37.844;2022-10-18T13:50:15;28.83;;;23.00;;
26014;SDS011;13793;55.388;37.844;2022-10-18T13:52:51;30.12;;;23.12;;
26014;SDS011;13793;55.388;37.844;2022-10-18T14:01:13;27.10;;;21.20;;
26014;SDS011;13793;55.388;37.844;2022-10-18T14:04:06;25.90;;;20.50;;
26014;SDS011;13793;55.388;37.844;2022-10-18T14:06:27;25.48;;;20.27;;
26014;SDS011;13793;55.388;37.844;2022-10-18T14:09:18;24.27;;;20.65;;
26014;SDS011;13793;55.388;37.844;2022-10-18T14:25:29;20.85;;;17.95;;
26014;SDS011;13793;55.388;37.844;2022-10-18T14:28:13;23.50;;;18.15;;
26014;SDS011;13793;55.388;37.844;2022-10-18T14:33:35;23.20;;;18.32;;
26014;SDS011;13793;55.388;37.844;2022-10-18T14:41:29;21.23;;;17.55;;
26014;SDS011;13793;55.388;37.844;2022-10-18T14:44:13;22.25;;;17.12;;
26014;SDS011;13793;55.388;37.844;2022-10-18T14:46:51;20.40;;;17.48;;
26014;SDS011;13793;55.388;37.844;2022-10-18T14:49:17;21.62;;;16.60;;
26014;SDS011;13793;55.388;37.844;2022-10-18T14:51:52;23.60;;;17.45;;
26014;SDS011;13793;55.388;37.844;2022-10-18T14:54:29;23.27;;;18.57;;
26014;SDS011;13793;55.388;37.844;2022-10-18T14:57:00;22.15;;;17.07;;
26014;SDS011;13793;55.388;37.844;2022-10-18T14:59:43;13.85;;;10.00;;
26014;SDS011;13793;55.388;37.844;2022-10-18T15:02:21;12.20;;;9.98;;
26014;SDS011;13793;55.388;37.844;2022-10-18T15:04:58;12.15;;;10.28;;
26014;SDS011;13793;55.388;37.844;2022-10-18T15:07:30;11.93;;;9.23;;
26014;SDS011;13793;55.388;37.844;2022-10-18T15:10:02;10.05;;;8.05;;
26014;SDS011;13793;55.388;37.844;2022-10-18T15:12:34;9.80;;;8.33;;
26014;SDS011;13793;55.388;37.844;2022-10-18T15:15:05;7.85;;;6.83;;
26014;SDS011;13793;55.388;37.844;2022-10-18T15:17:38;7.00;;;5.80;;
26014;SDS011;13793;55.388;37.844;2022-10-18T15:23:20;5.40;;;4.90;;
26014;SDS011;13793;55.388;37.844;2022-10-18T15:25:47;5.72;;;4.75;;
26014;SDS011;13793;55.388;37.844;2022-10-18T15:28:25;6.55;;;4.55;;
26014;SDS011;13793;55.388;37.844;2022-10-18T15:30:58;5.95;;;4.40;;
26014;SDS011;13793;55.388;37.844;2022-10-18T15:33:29;4.75;;;4.25;;
26014;SDS011;13793;55.388;37.844;2022-10-18T15:36:08;6.42;;;4.17;;
26014;SDS011;13793;55.388;37.844;2022-10-18T15:38:39;4.47;;;3.60;;
26014;SDS011;13793;55.388;37.844;2022-10-18T15:49:53;5.12;;;3.52;;
26014;SDS011;13793;55.388;37.844;2022-10-18T15:52:38;4.10;;;3.20;;
26014;SDS011;13793;55.388;37.844;2022-10-18T15:58:04;4.75;;;3.15;;
26014;SDS011;13793;55.388;37.844;2022-10-18T16:00:37;5.15;;;3.20;;
26014;SDS011;13793;55.388;37.844;2022-10-18T16:03:08;3.60;;;2.60;;
26014;SDS011;13793;55.388;37.844;2022-10-18T16:05:39;1.70;;;1.60;;
26014;SDS011;13793;55.388;37.844;2022-10-18T16:08:17;3.50;;;2.35;;
26014;SDS011;13793;55.388;37.844;2022-10-18T16:10:49;4.67;;;2.35;;
26014;SDS011;13793;55.388;37.844;2022-10-18T16:13:20;5.35;;;2.30;;
26014;SDS011;13793;55.388;37.844;2022-10-18T16:15:51;2.25;;;1.62;;
26014;SDS011;13793;55.388;37.844;2022-10-18T16:18:24;2.33;;;1.60;;
26014;SDS011;13793;55.388;37.844;2022-10-18T16:20:55;2.05;;;1.52;;
26014;SDS011;13793;55.388;37.844;2022-10-18T16:23:26;3.20;;;1.70;;
26014;SDS011;13793;55.388;37.844;2022-10-18T16:25:57;2.08;;;1.57;;
26014;SDS011;13793;55.388;37.844;2022-10-18T16:28:28;2.42;;;1.85;;
26014;SDS011;13793;55.388;37.844;2022-10-18T16:31:00;3.62;;;1.80;;
26014;SDS011;13793;55.388;37.844;2022-10-18T16:33:31;1.85;;;1.57;;
26014;SDS011;13793;55.388;37.844;2022-10-18T16:36:03;1.60;;;1.05;;
26014;SDS011;13793;55.388;37.844;2022-10-18T16:38:34;1.30;;;1.15;;
26014;SDS011;13793;55.388;37.844;2022-10-18T16:41:06;1.50;;;1.40;;
26014;SDS011;13793;55.388;37.844;2022-10-18T16:43:37;2.08;;;1.50;;
26014;SDS011;13793;55.388;37.844;2022-10-18T16:46:18;2.08;;;1.80;;
26014;SDS011;13793;55.388;37.844;2022-10-18T16:48:54;2.67;;;1.80;;
26014;SDS011;13793;55.388;37.844;2022-10-18T16:51:25;2.62;;;1.30;;
26014;SDS011;13793;55.388;37.844;2022-10-18T16:53:56;2.85;;;1.15;;
26014;SDS011;13793;55.388;37.844;2022-10-18T16:56:30;1.70;;;1.40;;
26014;SDS011;13793;55.388;37.844;2022-10-18T16:59:01;2.77;;;1.50;;
26014;SDS011;13793;55.388;37.844;2022-10-18T17:01:32;3.75;;;1.20;;
26014;SDS011;13793;55.388;37.844;2022-10-18T17:04:02;2.20;;;1.40;;
26014;SDS011;13793;55.388;37.844;2022-10-18T17:06:33;1.95;;;1.72;;
26014;SDS011;13793;55.388;37.844;2022-10-18T17:09:04;2.00;;;1.40;;
26014;SDS011;13793;55.388;37.844;2022-10-18T17:11:37;1.50;;;1.40;;
26014;SDS011;13793;55.388;37.844;2022-10-18T17:14:08;1.82;;;1.15;;
26014;SDS011;13793;55.388;37.844;2022-10-18T17:16:39;2.17;;;1.67;;
26014;SDS011;13793;55.388;37.844;2022-10-18T17:19:09;2.95;;;1.60;;
26014;SDS011;13793;55.388;37.844;2022-10-18T17:21:40;3.12;;;2.30;;
26014;SDS011;13793;55.388;37.844;2022-10-18T17:24:11;3.30;;;1.70;;